sensor_id;sensor_type;location;lat;lon;timestamp;temperature;humidity
17007;DHT22;8620;51.168;4.154;2023-01-31T07:35:27;5.80;99.90
17007;DHT22;8620;51.168;4.154;2023-01-31T07:38:33;5.90;99.90
17007;DHT22;8620;51.168;4.154;2023-01-31T07:41:25;5.90;99.90
17007;DHT22;8620;51.168;4.154;2023-01-31T07:44:27;6.20;99.90
17007;DHT22;8620;51.168;4.154;2023-01-31T07:47:34;6.40;99.90
17007;DHT22;8620;51.168;4.154;2023-01-31T07:50:57;6.30;99.90
17007;DHT22;8620;51.168;4.154;2023-01-31T07:54:17;6.40;99.90
17007;DHT22;8620;51.168;4.154;2023-01-31T07:57:23;6.20;99.90
17007;DHT22;8620;51.168;4.154;2023-01-31T08:03:46;6.40;99.90
17007;DHT22;8620;51.168;4.154;2023-01-31T08:06:56;6.40;99.90
17007;DHT22;8620;51.168;4.154;2023-01-31T08:09:51;6.50;99.90
17007;DHT22;8620;51.168;4.154;2023-01-31T08:12:42;6.70;99.90
17007;DHT22;8620;51.168;4.154;2023-01-31T08:15:31;6.60;99.90
17007;DHT22;8620;51.168;4.154;2023-01-31T08:21:49;6.40;99.90
17007;DHT22;8620;51.168;4.154;2023-01-31T08:24:47;6.50;99.90
17007;DHT22;8620;51.168;4.154;2023-01-31T08:27:29;6.40;99.90
17007;DHT22;8620;51.168;4.154;2023-01-31T08:30:33;6.40;99.90
17007;DHT22;8620;51.168;4.154;2023-01-31T08:33:31;6.50;99.90
17007;DHT22;8620;51.168;4.154;2023-01-31T08:36:27;6.70;99.90
17007;DHT22;8620;51.168;4.154;2023-01-31T08:39:22;6.60;99.90
17007;DHT22;8620;51.168;4.154;2023-01-31T08:42:01;6.60;99.90
17007;DHT22;8620;51.168;4.154;2023-01-31T08:45:02;6.70;99.90
17007;DHT22;8620;51.168;4.154;2023-01-31T08:53:38;6.60;99.90
17007;DHT22;8620;51.168;4.154;2023-01-31T08:59:11;7.40;99.90
17007;DHT22;8620;51.168;4.154;2023-01-31T09:02:31;6.70;99.90
17007;DHT22;8620;51.168;4.154;2023-01-31T09:05:28;6.70;99.90
17007;DHT22;8620;51.168;4.154;2023-01-31T09:08:45;6.50;99.90
17007;DHT22;8620;51.168;4.154;2023-01-31T09:11:37;6.60;99.90
17007;DHT22;8620;51.168;4.154;2023-01-31T09:14:40;6.40;99.90
17007;DHT22;8620;51.168;4.154;2023-01-31T09:17:38;6.60;99.90
17007;DHT22;8620;51.168;4.154;2023-01-31T09:20:34;6.70;99.90
17007;DHT22;8620;51.168;4.154;2023-01-31T09:23:37;6.50;99.90
17007;DHT22;8620;51.168;4.154;2023-01-31T09:26:32;6.50;99.90
17007;DHT22;8620;51.168;4.154;2023-01-31T09:29:23;6.70;99.90
17007;DHT22;8620;51.168;4.154;2023-01-31T09:32:17;6.70;99.90
17007;DHT22;8620;51.168;4.154;2023-01-31T09:35:09;6.70;99.90
17007;DHT22;8620;51.168;4.154;2023-01-31T09:38:06;6.80;99.90
17007;DHT22;8620;51.168;4.154;2023-01-31T09:41:12;7.00;99.90
17007;DHT22;8620;51.168;4.154;2023-01-31T09:44:10;7.00;99.90
17007;DHT22;8620;51.168;4.154;2023-01-31T09:46:41;7.30;99.90
17007;DHT22;8620;51.168;4.154;2023-01-31T09:49:41;7.60;99.90
17007;DHT22;8620;51.168;4.154;2023-01-31T09:52:23;7.30;99.90
17007;DHT22;8620;51.168;4.154;2023-01-31T09:54:58;7.10;99.90
17007;DHT22;8620;51.168;4.154;2023-01-31T10:15:05;7.40;99.90
17007;DHT22;8620;51.168;4.154;2023-01-31T10:18:10;7.40;99.90
17007;DHT22;8620;51.168;4.154;2023-01-31T10:33:53;7.30;99.90
17007;DHT22;8620;51.168;4.154;2023-01-31T10:39:33;8.10;99.90
17007;DHT22;8620;51.168;4.154;2023-01-31T10:48:53;8.00;99.90
17007;DHT22;8620;51.168;4.154;2023-01-31T10:57:45;8.10;99.90
17007;DHT22;8620;51.168;4.154;2023-01-31T11:00:34;8.10;99.90
17007;DHT22;8620;51.168;4.154;2023-01-31T11:03:23;8.20;99.90
17007;DHT22;8620;51.168;4.154;2023-01-31T11:05:58;8.10;99.90
17007;DHT22;8620;51.168;4.154;2023-01-31T11:11:27;8.30;99.90
17007;DHT22;8620;51.168;4.154;2023-01-31T11:17:02;8.40;99.90
17007;DHT22;8620;51.168;4.154;2023-01-31T11:22:42;8.80;99.90
17007;DHT22;8620;51.168;4.154;2023-01-31T11:32:26;8.70;99.90
17007;DHT22;8620;51.168;4.154;2023-01-31T11:37:57;8.80;99.90
17007;DHT22;8620;51.168;4.154;2023-01-31T11:40:37;9.10;99.90
17007;DHT22;8620;51.168;4.154;2023-01-31T11:43:31;9.20;99.90
17007;DHT22;8620;51.168;4.154;2023-01-31T11:46:20;9.20;99.90
17007;DHT22;8620;51.168;4.154;2023-01-31T11:49:07;9.20;99.90
17007;DHT22;8620;51.168;4.154;2023-01-31T11:51:44;9.10;99.90
17007;DHT22;8620;51.168;4.154;2023-01-31T11:54:39;9.10;99.90
17007;DHT22;8620;51.168;4.154;2023-01-31T11:57:45;9.10;99.90
17007;DHT22;8620;51.168;4.154;2023-01-31T12:00:23;9.10;99.90
17007;DHT22;8620;51.168;4.154;2023-01-31T12:03:14;9.20;99.90
17007;DHT22;8620;51.168;4.154;2023-01-31T12:05:45;9.30;99.90
17007;DHT22;8620;51.168;4.154;2023-01-31T12:08:38;9.30;99.90
17007;DHT22;8620;51.168;4.154;2023-01-31T12:11:43;9.40;99.90
17007;DHT22;8620;51.168;4.154;2023-01-31T12:14:36;9.50;99.90
17007;DHT22;8620;51.168;4.154;2023-01-31T12:17:04;9.40;99.90
17007;DHT22;8620;51.168;4.154;2023-01-31T12:23:18;9.60;99.90
17007;DHT22;8620;51.168;4.154;2023-01-31T12:29:08;9.60;99.90
17007;DHT22;8620;51.168;4.154;2023-01-31T12:32:13;9.50;99.90
17007;DHT22;8620;51.168;4.154;2023-01-31T12:46:45;9.30;99.90
17007;DHT22;8620;51.168;4.154;2023-01-31T13:00:39;8.70;99.90
17007;DHT22;8620;51.168;4.154;2023-01-31T13:03:31;8.60;99.90
17007;DHT22;8620;51.168;4.154;2023-01-31T13:12:58;8.60;99.90
17007;DHT22;8620;51.168;4.154;2023-01-31T13:16:30;8.60;99.90
17007;DHT22;8620;51.168;4.154;2023-01-31T13:19:45;8.70;99.90
17007;DHT22;8620;51.168;4.154;2023-01-31T13:22:36;8.80;99.90
17007;DHT22;8620;51.168;4.154;2023-01-31T13:28:59;8.70;99.90
17007;DHT22;8620;51.168;4.154;2023-01-31T13:31:44;8.60;99.90
17007;DHT22;8620;51.168;4.154;2023-01-31T13:34:33;8.60;99.90
17007;DHT22;8620;51.168;4.154;2023-01-31T13:37:47;8.60;99.90
17007;DHT22;8620;51.168;4.154;2023-01-31T13:40:47;8.70;99.90
17007;DHT22;8620;51.168;4.154;2023-01-31T13:43:22;8.70;99.90
17007;DHT22;8620;51.168;4.154;2023-01-31T13:46:01;8.80;99.90
17007;DHT22;8620;51.168;4.154;2023-01-31T13:48:58;8.80;99.90
17007;DHT22;8620;51.168;4.154;2023-01-31T13:51:44;8.70;99.90
17007;DHT22;8620;51.168;4.154;2023-01-31T14:01:21;9.10;99.90
17007;DHT22;8620;51.168;4.154;2023-01-31T14:04:27;8.90;99.90
17007;DHT22;8620;51.168;4.154;2023-01-31T14:07:26;9.10;99.90
17007;DHT22;8620;51.168;4.154;2023-01-31T14:15:55;9.30;99.90
17007;DHT22;8620;51.168;4.154;2023-01-31T14:19:12;9.40;99.90
17007;DHT22;8620;51.168;4.154;2023-01-31T14:25:12;9.80;99.90
17007;DHT22;8620;51.168;4.154;2023-01-31T14:27:40;9.70;99.90
17007;DHT22;8620;51.168;4.154;2023-01-31T14:35:59;10.00;99.90
17007;DHT22;8620;51.168;4.154;2023-01-31T14:47:06;9.70;99.90
17007;DHT22;8620;51.168;4.154;2023-01-31T14:52:59;9.90;99.90
17007;DHT22;8620;51.168;4.154;2023-01-31T14:55:48;9.90;99.90
17007;DHT22;8620;51.168;4.154;2023-01-31T14:58:24;10.00;99.90
17007;DHT22;8620;51.168;4.154;2023-01-31T15:01:07;9.90;99.90
17007;DHT22;8620;51.168;4.154;2023-01-31T15:03:51;9.80;99.90
17007;DHT22;8620;51.168;4.154;2023-01-31T15:06:32;9.90;99.90
17007;DHT22;8620;51.168;4.154;2023-01-31T15:09:35;10.00;99.90
17007;DHT22;8620;51.168;4.154;2023-01-31T15:15:40;10.20;99.90
17007;DHT22;8620;51.168;4.154;2023-01-31T15:18:25;10.30;99.90
17007;DHT22;8620;51.168;4.154;2023-01-31T15:21:38;10.40;99.90
17007;DHT22;8620;51.168;4.154;2023-01-31T15:24:33;10.60;99.90
17007;DHT22;8620;51.168;4.154;2023-01-31T15:27:30;10.40;99.90
17007;DHT22;8620;51.168;4.154;2023-01-31T15:30:47;10.30;99.90
17007;DHT22;8620;51.168;4.154;2023-01-31T15:33:50;10.20;99.90
17007;DHT22;8620;51.168;4.154;2023-01-31T15:39:20;10.40;99.90
17007;DHT22;8620;51.168;4.154;2023-01-31T15:45:49;10.10;99.90
17007;DHT22;8620;51.168;4.154;2023-01-31T15:48:26;10.30;99.90
17007;DHT22;8620;51.168;4.154;2023-01-31T15:51:38;10.20;99.90
17007;DHT22;8620;51.168;4.154;2023-01-31T15:54:17;10.10;99.90
17007;DHT22;8620;51.168;4.154;2023-01-31T15:57:18;10.10;99.90
17007;DHT22;8620;51.168;4.154;2023-01-31T16:03:39;10.10;99.90
17007;DHT22;8620;51.168;4.154;2023-01-31T16:06:22;10.30;99.90
17007;DHT22;8620;51.168;4.154;2023-01-31T16:09:30;10.00;99.90
17007;DHT22;8620;51.168;4.154;2023-01-31T16:12:03;10.00;99.90
17007;DHT22;8620;51.168;4.154;2023-01-31T16:14:29;10.10;99.90
17007;DHT22;8620;51.168;4.154;2023-01-31T16:17:33;10.10;99.90
17007;DHT22;8620;51.168;4.154;2023-01-31T16:20:04;10.00;99.90
17007;DHT22;8620;51.168;4.154;2023-01-31T16:22:57;10.00;99.90
17007;DHT22;8620;51.168;4.154;2023-01-31T16:25:51;10.00;99.90
17007;DHT22;8620;51.168;4.154;2023-01-31T16:28:46;9.90;99.90
17007;DHT22;8620;51.168;4.154;2023-01-31T16:31:17;9.80;99.90
17007;DHT22;8620;51.168;4.154;2023-01-31T16:34:13;9.90;99.90
17007;DHT22;8620;51.168;4.154;2023-01-31T16:37:12;9.90;99.90
17007;DHT22;8620;51.168;4.154;2023-01-31T16:39:46;10.10;99.90
17007;DHT22;8620;51.168;4.154;2023-01-31T16:44:43;9.70;99.90
17007;DHT22;8620;51.168;4.154;2023-01-31T16:47:45;9.70;99.90
17007;DHT22;8620;51.168;4.154;2023-01-31T16:55:43;10.10;99.90
17007;DHT22;8620;51.168;4.154;2023-01-31T17:01:25;9.70;99.90
17007;DHT22;8620;51.168;4.154;2023-01-31T17:04:16;9.80;99.90
17007;DHT22;8620;51.168;4.154;2023-01-31T17:06:47;9.90;99.90
17007;DHT22;8620;51.168;4.154;2023-01-31T17:09:20;10.10;99.90
17007;DHT22;8620;51.168;4.154;2023-01-31T17:11:46;10.00;99.90
17007;DHT22;8620;51.168;4.154;2023-01-31T17:14:18;10.10;99.90
17007;DHT22;8620;51.168;4.154;2023-01-31T17:16:50;10.30;99.90
17007;DHT22;8620;51.168;4.154;2023-01-31T17:19:19;10.60;99.90
17007;DHT22;8620;51.168;4.154;2023-01-31T17:21:51;10.10;99.90
17007;DHT22;8620;51.168;4.154;2023-01-31T17:24:23;9.70;99.90
17007;DHT22;8620;51.168;4.154;2023-01-31T17:26:49;9.50;99.90
17007;DHT22;8620;51.168;4.154;2023-01-31T17:29:15;9.80;99.90
17007;DHT22;8620;51.168;4.154;2023-01-31T17:31:47;9.70;99.90
17007;DHT22;8620;51.168;4.154;2023-01-31T17:34:35;9.70;99.90
17007;DHT22;8620;51.168;4.154;2023-01-31T17:37:07;9.60;99.90
17007;DHT22;8620;51.168;4.154;2023-01-31T17:39:33;9.60;99.90
17007;DHT22;8620;51.168;4.154;2023-01-31T17:42:00;9.80;99.90
17007;DHT22;8620;51.168;4.154;2023-01-31T17:44:26;9.70;99.90
17007;DHT22;8620;51.168;4.154;2023-01-31T17:46:51;9.50;99.90
17007;DHT22;8620;51.168;4.154;2023-01-31T17:49:20;9.50;99.90
17007;DHT22;8620;51.168;4.154;2023-01-31T17:51:49;9.30;99.90
17007;DHT22;8620;51.168;4.154;2023-01-31T17:54:20;9.30;99.90
17007;DHT22;8620;51.168;4.154;2023-01-31T17:56:52;9.40;99.90
17007;DHT22;8620;51.168;4.154;2023-01-31T17:59:44;9.20;99.90
17007;DHT22;8620;51.168;4.154;2023-01-31T18:02:19;9.10;99.90
17007;DHT22;8620;51.168;4.154;2023-01-31T18:04:50;9.20;99.90
17007;DHT22;8620;51.168;4.154;2023-01-31T18:07:24;9.20;99.90
17007;DHT22;8620;51.168;4.154;2023-01-31T18:10:09;9.00;99.90
17007;DHT22;8620;51.168;4.154;2023-01-31T18:12:58;9.00;99.90
17007;DHT22;8620;51.168;4.154;2023-01-31T18:15:24;8.90;99.90
17007;DHT22;8620;51.168;4.154;2023-01-31T18:18:11;8.80;99.90
17007;DHT22;8620;51.168;4.154;2023-01-31T18:21:06;8.90;99.90
17007;DHT22;8620;51.168;4.154;2023-01-31T18:23:52;9.00;99.90
17007;DHT22;8620;51.168;4.154;2023-01-31T18:26:19;8.90;99.90
17007;DHT22;8620;51.168;4.154;2023-01-31T18:28:46;9.10;99.90
17007;DHT22;8620;51.168;4.154;2023-01-31T18:31:16;9.10;99.90
17007;DHT22;8620;51.168;4.154;2023-01-31T18:33:45;9.00;99.90
17007;DHT22;8620;51.168;4.154;2023-01-31T18:36:17;8.90;99.90
17007;DHT22;8620;51.168;4.154;2023-01-31T18:38:45;8.90;99.90
17007;DHT22;8620;51.168;4.154;2023-01-31T18:41:14;8.90;99.90
17007;DHT22;8620;51.168;4.154;2023-01-31T18:43:50;8.80;99.90
17007;DHT22;8620;51.168;4.154;2023-01-31T18:46:16;8.90;99.90
17007;DHT22;8620;51.168;4.154;2023-01-31T18:48:44;8.90;99.90
17007;DHT22;8620;51.168;4.154;2023-01-31T18:51:14;8.90;99.90
17007;DHT22;8620;51.168;4.154;2023-01-31T18:54:19;8.90;99.90
17007;DHT22;8620;51.168;4.154;2023-01-31T18:57:05;9.00;99.90
17007;DHT22;8620;51.168;4.154;2023-01-31T19:03:15;9.00;99.90
17007;DHT22;8620;51.168;4.154;2023-01-31T19:05:43;9.20;99.90
17007;DHT22;8620;51.168;4.154;2023-01-31T19:08:10;9.20;99.90
17007;DHT22;8620;51.168;4.154;2023-01-31T19:10:36;9.00;99.90
17007;DHT22;8620;51.168;4.154;2023-01-31T19:13:01;8.80;99.90
17007;DHT22;8620;51.168;4.154;2023-01-31T19:15:27;8.60;99.90
17007;DHT22;8620;51.168;4.154;2023-01-31T19:17:59;8.60;99.90
17007;DHT22;8620;51.168;4.154;2023-01-31T19:20:33;8.70;99.90
17007;DHT22;8620;51.168;4.154;2023-01-31T19:22:59;8.70;99.90
17007;DHT22;8620;51.168;4.154;2023-01-31T19:25:34;8.60;99.90
17007;DHT22;8620;51.168;4.154;2023-01-31T19:28:03;8.50;99.90
17007;DHT22;8620;51.168;4.154;2023-01-31T19:30:29;8.40;99.90
17007;DHT22;8620;51.168;4.154;2023-01-31T19:33:17;8.50;99.90
17007;DHT22;8620;51.168;4.154;2023-01-31T19:36:10;8.60;99.90
17007;DHT22;8620;51.168;4.154;2023-01-31T19:38:42;8.50;99.90
17007;DHT22;8620;51.168;4.154;2023-01-31T19:41:15;8.40;99.90
17007;DHT22;8620;51.168;4.154;2023-01-31T19:43:54;8.30;99.90
17007;DHT22;8620;51.168;4.154;2023-01-31T19:46:26;8.30;99.90
17007;DHT22;8620;51.168;4.154;2023-01-31T19:49:06;8.20;99.90
17007;DHT22;8620;51.168;4.154;2023-01-31T19:51:38;8.30;99.90
17007;DHT22;8620;51.168;4.154;2023-01-31T19:54:12;8.20;99.90
17007;DHT22;8620;51.168;4.154;2023-01-31T19:56:40;8.30;99.90
17007;DHT22;8620;51.168;4.154;2023-01-31T19:59:06;8.30;99.90
17007;DHT22;8620;51.168;4.154;2023-01-31T20:01:41;8.10;99.90
17007;DHT22;8620;51.168;4.154;2023-01-31T20:04:10;8.00;99.90
17007;DHT22;8620;51.168;4.154;2023-01-31T20:06:56;8.00;99.90
17007;DHT22;8620;51.168;4.154;2023-01-31T20:09:28;8.00;99.90
17007;DHT22;8620;51.168;4.154;2023-01-31T20:11:54;8.30;99.90
17007;DHT22;8620;51.168;4.154;2023-01-31T20:14:23;8.40;99.90
17007;DHT22;8620;51.168;4.154;2023-01-31T20:16:49;8.50;99.90
17007;DHT22;8620;51.168;4.154;2023-01-31T20:19:15;8.20;99.90
17007;DHT22;8620;51.168;4.154;2023-01-31T20:21:47;8.10;99.90
17007;DHT22;8620;51.168;4.154;2023-01-31T20:24:14;8.00;99.90
17007;DHT22;8620;51.168;4.154;2023-01-31T20:26:45;8.00;99.90
17007;DHT22;8620;51.168;4.154;2023-01-31T20:29:20;8.20;99.90
17007;DHT22;8620;51.168;4.154;2023-01-31T20:31:51;7.90;99.90
17007;DHT22;8620;51.168;4.154;2023-01-31T20:34:17;7.90;99.90
17007;DHT22;8620;51.168;4.154;2023-01-31T20:36:43;7.80;99.90
17007;DHT22;8620;51.168;4.154;2023-01-31T20:39:18;7.70;99.90
17007;DHT22;8620;51.168;4.154;2023-01-31T20:41:51;7.80;99.90
17007;DHT22;8620;51.168;4.154;2023-01-31T20:44:25;8.00;99.90
17007;DHT22;8620;51.168;4.154;2023-01-31T20:46:50;7.90;99.90
17007;DHT22;8620;51.168;4.154;2023-01-31T20:49:22;7.70;99.90
17007;DHT22;8620;51.168;4.154;2023-01-31T20:51:58;7.70;99.90
17007;DHT22;8620;51.168;4.154;2023-01-31T20:54:29;7.60;99.90
17007;DHT22;8620;51.168;4.154;2023-01-31T20:57:05;7.60;99.90
